Hua Heng 167 — BIAK3 — position and weather

sailwx.info

Track history (hours):
 
Tides and Currents Weather Stations Pressure Air Temp Water Temp Dewpoint Dewpoint Depression Visibility Wind Speed Wind Dir Waves Ship Positions

Hua Heng 167

Last reported at 2014-Aug-30 10:28 UTC. Time now 2014-Sep-03 05:06 UTC.
Position N 31°58' E 120°22'.

Length 189 m; draft 6.5 m.

Type: Cargo ship. MMSI: 413376470.

Date/timePositionNaut miles runAvg speedWind from/ knotsBaromVisibWave heightAir tempDewpointWater temp
2014-Aug-30 10:28N 31°58' E 120°22'0 0.0
2014-Aug-30 09:31N 31°58' E 120°22'0 0.0
2014-Aug-30 08:31N 31°58' E 120°22'0 0.0
2014-Aug-30 07:31N 31°58' E 120°22'  
2014-Aug-23 03:32N 31°58' E 120°22'0 0.0
2014-Aug-23 02:32N 31°58' E 120°22'0 0.0
2014-Aug-23 01:25N 31°58' E 120°22'0 0.0
2014-Aug-23 00:32N 31°58' E 120°22'0 0.0
2014-Aug-21 06:34N 31°58' E 120°22'0 0.0
2014-Aug-21 05:27N 31°58' E 120°22'0 0.0
2014-Aug-21 04:33N 31°58' E 120°22'2 2.3
2014-Aug-21 03:33N 31°57' E 120°19'8 8.0
2014-Aug-21 02:33N 31°56' E 120°10'2 1.3
2014-Aug-21 01:18N 31°57' E 120°08'0 0.0
2014-Aug-21 00:33N 31°57' E 120°08'0 0.0
2014-Aug-20 23:33N 31°57' E 120°08'0 0.0
2014-Aug-20 22:33N 31°57' E 120°08'0 0.0
2014-Aug-20 21:33N 31°57' E 120°08'0 0.0
2014-Aug-20 20:33N 31°57' E 120°08'0 0.0
2014-Aug-20 19:33N 31°57' E 120°08'0 0.0
2014-Aug-20 18:33N 31°57' E 120°08'0 0.0
2014-Aug-20 17:33N 31°57' E 120°08'0 0.0
2014-Aug-20 16:27N 31°57' E 120°08'0 0.0
2014-Aug-20 15:33N 31°57' E 120°08'3 2.7
2014-Aug-20 14:33N 31°56' E 120°11'0 0.2
2014-Aug-20 13:27N 31°55' E 120°11'0 0.0
2014-Aug-20 12:33N 31°55' E 120°11'0 0.0
2014-Aug-20 11:24N 31°55' E 120°11'0 0.0
2014-Aug-20 10:30N 31°55' E 120°11'  
Track history (hours):
 
Tides and Currents Weather Stations Pressure Air Temp Water Temp Dewpoint Dewpoint Depression Visibility Wind Speed Wind Dir Waves Ship Positions

Hua Heng 167

Last reported at 2014-Aug-30 10:28 UTC. Time now 2014-Sep-03 05:06 UTC.
Position N 31°58' E 120°22'.

Length 189 m; draft 6.5 m.

Type: Cargo ship. MMSI: 413376470.

Date/timePositionNaut miles runAvg speedWind from/ knotsBaromVisibWave heightAir tempDewpointWater temp
2014-Aug-30 10:28N 31°58' E 120°22'0 0.0
2014-Aug-30 09:31N 31°58' E 120°22'0 0.0
2014-Aug-30 08:31N 31°58' E 120°22'0 0.0
2014-Aug-30 07:31N 31°58' E 120°22'  
2014-Aug-23 03:32N 31°58' E 120°22'0 0.0
2014-Aug-23 02:32N 31°58' E 120°22'0 0.0
2014-Aug-23 01:25N 31°58' E 120°22'0 0.0
2014-Aug-23 00:32N 31°58' E 120°22'0 0.0
2014-Aug-21 06:34N 31°58' E 120°22'0 0.0
2014-Aug-21 05:27N 31°58' E 120°22'0 0.0
2014-Aug-21 04:33N 31°58' E 120°22'2 2.3
2014-Aug-21 03:33N 31°57' E 120°19'8 8.0
2014-Aug-21 02:33N 31°56' E 120°10'2 1.3
2014-Aug-21 01:18N 31°57' E 120°08'0 0.0
2014-Aug-21 00:33N 31°57' E 120°08'0 0.0
2014-Aug-20 23:33N 31°57' E 120°08'0 0.0
2014-Aug-20 22:33N 31°57' E 120°08'0 0.0
2014-Aug-20 21:33N 31°57' E 120°08'0 0.0
2014-Aug-20 20:33N 31°57' E 120°08'0 0.0
2014-Aug-20 19:33N 31°57' E 120°08'0 0.0
2014-Aug-20 18:33N 31°57' E 120°08'0 0.0
2014-Aug-20 17:33N 31°57' E 120°08'0 0.0
2014-Aug-20 16:27N 31°57' E 120°08'0 0.0
2014-Aug-20 15:33N 31°57' E 120°08'3 2.7
2014-Aug-20 14:33N 31°56' E 120°11'0 0.2
2014-Aug-20 13:27N 31°55' E 120°11'0 0.0
2014-Aug-20 12:33N 31°55' E 120°11'0 0.0
2014-Aug-20 11:24N 31°55' E 120°11'0 0.0
2014-Aug-20 10:30N 31°55' E 120°11'  

Dump ship's entire track history